Time;durP1;ratioP1;P1;durP2;ratioP2;P2;SDS_P1;SDS_P2;PMS_P1;PMS_P2;Temp;Humidity;BMP_temperature;BMP_pressure;BME280_temperature;BME280_humidity;BME280_pressure;Samples;Min_cycle;Max_cycle;Signal;HPM_P1;HPM_P2
2021/08/22 00:04:28;;;;;;;8.57;3.63;;;18.40;99.90;;;;;;20447720;28;20680;-83
2021/08/22 00:14:29;;;;;;;9.27;4.28;;;18.40;99.90;;;;;;20296809;28;20057;-83
2021/08/22 00:24:30;;;;;;;6.72;4.03;;;18.40;99.90;;;;;;20345547;28;20393;-83
2021/08/22 00:34:31;;;;;;;6.43;3.45;;;18.40;99.90;;;;;;20363956;28;20061;-83
2021/08/22 00:44:32;;;;;;;6.35;2.97;;;18.30;99.90;;;;;;20429030;28;20051;-83
2021/08/22 00:54:42;;;;;;;5.60;3.50;;;18.20;99.90;;;;;;20401775;28;20063;-82
2021/08/22 01:05:15;;;;;;;7.93;2.90;;;18.10;99.90;;;;;;20419872;28;20061;-82
2021/08/22 01:15:18;;;;;;;8.35;3.55;;;18.10;99.90;;;;;;20456047;28;20700;-82
2021/08/22 01:25:20;;;;;;;6.88;3.28;;;18.10;99.90;;;;;;20448259;28;20057;-82
2021/08/22 01:35:23;;;;;;;5.50;2.80;;;18.10;99.90;;;;;;20372513;28;20497;-82
2021/08/22 01:45:25;;;;;;;9.65;3.60;;;18.20;99.90;;;;;;20430077;28;20044;-82
2021/08/22 01:55:27;;;;;;;8.98;3.58;;;18.10;99.90;;;;;;20369970;28;20387;-82
2021/08/22 02:05:29;;;;;;;9.65;4.43;;;18.10;99.90;;;;;;20421807;28;20395;-82
2021/08/22 02:15:40;;;;;;;9.50;5.47;;;18.10;99.90;;;;;;20435299;28;20050;-82
2021/08/22 02:25:43;;;;;;;11.35;4.65;;;18.10;99.90;;;;;;20480848;28;20040;-83
2021/08/22 02:35:44;;;;;;;10.77;4.00;;;18.00;99.90;;;;;;20823412;23;20043;-44
2021/08/22 02:45:45;;;;;;;8.70;4.55;;;18.00;99.90;;;;;;20467936;28;20628;-45
2021/08/22 02:55:46;;;;;;;11.57;4.55;;;17.90;99.90;;;;;;20471378;28;20055;-45
2021/08/22 03:05:47;;;;;;;15.52;5.93;;;17.80;99.90;;;;;;20481622;28;20070;-45
2021/08/22 03:15:48;;;;;;;11.80;6.13;;;17.80;99.90;;;;;;20481384;28;20044;-45
2021/08/22 03:25:49;;;;;;;11.82;5.20;;;17.80;99.90;;;;;;20485552;28;20042;-44
2021/08/22 03:35:50;;;;;;;10.52;4.90;;;17.80;99.90;;;;;;20483576;28;20378;-45
2021/08/22 03:45:54;;;;;;;11.15;5.07;;;17.80;99.90;;;;;;20479877;28;20082;-45
2021/08/22 03:55:55;;;;;;;11.05;4.57;;;17.70;99.90;;;;;;20470315;28;20074;-45
2021/08/22 04:05:56;;;;;;;6.78;3.72;;;17.60;99.90;;;;;;20481873;28;20042;-44
2021/08/22 04:15:57;;;;;;;9.25;3.88;;;17.60;99.90;;;;;;20501891;28;20073;-44
2021/08/22 04:25:59;;;;;;;7.70;3.10;;;17.60;99.90;;;;;;20490014;28;20066;-44
2021/08/22 04:36:00;;;;;;;6.72;2.85;;;17.60;99.90;;;;;;20487805;28;20073;-45
2021/08/22 04:46:01;;;;;;;7.32;3.33;;;17.60;99.90;;;;;;20507988;28;20043;-45
2021/08/22 04:56:02;;;;;;;7.22;3.53;;;17.50;99.90;;;;;;20496900;28;20093;-45
2021/08/22 05:06:03;;;;;;;9.77;4.35;;;17.50;99.90;;;;;;20498786;28;20282;-44
2021/08/22 05:16:07;;;;;;;12.52;4.20;;;17.50;99.90;;;;;;20519028;28;20050;-45
2021/08/22 05:26:08;;;;;;;13.50;4.18;;;17.40;99.90;;;;;;20483028;28;20051;-45
2021/08/22 05:36:21;;;;;;;13.05;5.78;;;17.40;99.90;;;;;;20500959;28;20051;-44
2021/08/22 05:46:23;;;;;;;14.55;5.78;;;17.50;99.90;;;;;;20489752;28;20046;-45
2021/08/22 05:56:24;;;;;;;14.75;5.57;;;17.60;99.90;;;;;;20502239;28;20403;-44
2021/08/22 06:06:25;;;;;;;18.40;6.55;;;17.60;99.90;;;;;;20507843;28;20059;-45
2021/08/22 06:16:26;;;;;;;15.25;6.47;;;17.70;99.90;;;;;;20495013;28;20051;-44
2021/08/22 06:26:28;;;;;;;19.33;5.80;;;17.80;99.90;;;;;;20515036;28;20058;-44
2021/08/22 06:36:29;;;;;;;17.25;6.35;;;18.00;99.90;;;;;;20499782;28;20049;-45
2021/08/22 06:46:30;;;;;;;19.40;7.57;;;18.00;99.90;;;;;;20505630;28;20051;-45
2021/08/22 06:56:32;;;;;;;19.90;8.23;;;18.10;99.90;;;;;;20484309;28;20038;-45
2021/08/22 07:06:33;;;;;;;13.05;5.95;;;18.20;99.90;;;;;;20474863;28;20046;-45
2021/08/22 07:16:34;;;;;;;11.80;5.03;;;18.20;99.90;;;;;;20467603;28;20410;-45
2021/08/22 07:26:35;;;;;;;17.33;6.22;;;18.10;99.90;;;;;;20496827;28;20507;-45
2021/08/22 07:36:37;;;;;;;15.95;6.65;;;18.10;99.90;;;;;;20453157;28;20048;-44
2021/08/22 07:46:38;;;;;;;14.77;5.25;;;18.10;99.90;;;;;;20399514;28;20419;-45
2021/08/22 07:56:44;;;;;;;13.10;4.43;;;18.40;99.90;;;;;;20342796;28;20039;-45
2021/08/22 08:06:45;;;;;;;12.35;4.38;;;18.70;99.90;;;;;;20452325;28;20372;-45
2021/08/22 08:16:46;;;;;;;9.80;4.18;;;18.80;99.90;;;;;;20443761;28;20143;-45
2021/08/22 08:26:47;;;;;;;9.80;4.47;;;18.90;99.90;;;;;;20464054;28;20070;-45
2021/08/22 08:36:49;;;;;;;8.57;3.92;;;19.00;99.90;;;;;;20462096;28;20042;-45
2021/08/22 08:46:53;;;;;;;22.73;5.30;;;19.10;99.90;;;;;;20440925;28;20046;-46
2021/08/22 08:56:56;;;;;;;10.50;4.57;;;19.00;99.90;;;;;;20441442;28;20050;-46
2021/08/22 09:07:21;;;;;;;11.75;4.32;;;18.90;99.90;;;;;;20449703;28;20052;-46
2021/08/22 09:18:00;;;;;;;9.25;4.70;;;19.10;99.90;;;;;;20450246;28;21530;-46
2021/08/22 09:28:32;;;;;;;10.02;4.65;;;19.40;99.90;;;;;;20467036;28;20502;-46
2021/08/22 09:38:55;;;;;;;8.60;4.10;;;19.50;99.90;;;;;;20514505;28;20462;-45
2021/08/22 09:49:33;;;;;;;8.90;4.93;;;19.50;99.90;;;;;;20545435;28;20054;-46
2021/08/22 09:59:56;;;;;;;10.23;4.50;;;19.60;99.90;;;;;;20546608;28;20488;-45
2021/08/22 10:10:09;;;;;;;8.43;4.03;;;19.30;99.90;;;;;;20565086;28;20074;-46
2021/08/22 10:20:11;;;;;;;9.63;4.80;;;18.70;99.90;;;;;;20541719;28;20039;-46
2021/08/22 10:30:12;;;;;;;13.90;5.72;;;18.60;99.90;;;;;;20556863;28;20054;-45
2021/08/22 10:40:26;;;;;;;8.30;4.53;;;18.60;99.90;;;;;;20463920;28;20060;-45
2021/08/22 10:50:27;;;;;;;8.68;5.03;;;18.60;99.90;;;;;;20415902;28;21636;-45
2021/08/22 11:00:30;;;;;;;19.92;5.82;;;18.80;99.90;;;;;;20446235;28;20047;-45
2021/08/22 11:10:31;;;;;;;9.90;3.92;;;18.90;99.90;;;;;;20431508;28;20048;-45
2021/08/22 11:20:32;;;;;;;5.53;2.97;;;19.30;99.90;;;;;;20430103;28;20052;-45
2021/08/22 11:30:33;;;;;;;7.05;2.97;;;19.30;99.90;;;;;;20426877;28;20051;-46
2021/08/22 11:40:37;;;;;;;4.72;2.10;;;18.60;99.90;;;;;;20439647;28;20053;-46
2021/08/22 11:50:38;;;;;;;4.18;1.40;;;17.90;99.90;;;;;;20421088;28;20063;-46
2021/08/22 12:00:42;;;;;;;3.83;1.95;;;17.60;99.90;;;;;;20429416;28;20040;-47
2021/08/22 12:10:43;;;;;;;3.17;1.35;;;17.50;99.90;;;;;;20427121;28;20043;-46
2021/08/22 12:20:47;;;;;;;3.85;1.52;;;17.40;99.90;;;;;;20434405;28;20043;-46
2021/08/22 12:31:00;;;;;;;3.55;1.50;;;17.60;99.90;;;;;;20428894;28;20051;-47
2021/08/22 12:41:34;;;;;;;3.40;1.58;;;17.70;99.90;;;;;;20433077;28;20035;-46
2021/08/22 12:51:37;;;;;;;6.95;2.00;;;18.00;99.90;;;;;;20422558;28;21618;-45
2021/08/22 13:01:38;;;;;;;4.47;2.10;;;18.30;99.90;;;;;;20434946;28;20043;-45
2021/08/22 13:11:39;;;;;;;5.65;2.42;;;19.10;99.90;;;;;;20424954;28;20040;-45
2021/08/22 13:21:40;;;;;;;3.33;1.92;;;20.20;99.90;;;;;;20447872;28;20476;-46
2021/08/22 13:31:42;;;;;;;1.95;1.10;;;20.70;99.90;;;;;;20446114;28;20055;-46
2021/08/22 13:41:43;;;;;;;2.75;1.52;;;20.50;99.90;;;;;;20461060;28;20610;-46
2021/08/22 13:51:47;;;;;;;2.88;0.95;;;20.10;99.90;;;;;;20449238;28;20572;-46
2021/08/22 14:01:48;;;;;;;2.22;0.90;;;19.80;99.90;;;;;;20460123;28;20049;-46
2021/08/22 14:11:51;;;;;;;1.30;0.60;;;19.70;99.90;;;;;;20437247;28;20048;-46
2021/08/22 14:21:52;;;;;;;1.05;0.57;;;19.60;99.90;;;;;;20451167;28;20050;-46
2021/08/22 14:31:53;;;;;;;3.20;0.73;;;19.40;99.90;;;;;;20444156;28;20052;-46
2021/08/22 14:42:02;;;;;;;4.43;1.38;;;19.30;99.90;;;;;;20543740;28;20038;-46
2021/08/22 14:52:03;;;;;;;3.30;1.55;;;19.20;99.90;;;;;;20536017;28;20058;-46
2021/08/22 15:02:04;;;;;;;1.90;1.00;;;19.60;99.90;;;;;;20557205;28;20038;-46
2021/08/22 15:12:06;;;;;;;2.05;1.10;;;19.80;99.90;;;;;;20548350;28;20078;-46
2021/08/22 15:22:07;;;;;;;2.75;1.10;;;19.70;99.90;;;;;;20545856;28;20047;-46
2021/08/22 15:32:08;;;;;;;2.03;0.93;;;19.60;99.90;;;;;;20560979;28;20049;-46
2021/08/22 15:42:10;;;;;;;4.97;0.80;;;19.50;99.90;;;;;;20491315;28;20039;-46
2021/08/22 15:52:11;;;;;;;2.55;1.48;;;19.50;99.90;;;;;;20481955;28;20409;-46
2021/08/22 16:02:12;;;;;;;3.13;1.30;;;19.70;99.90;;;;;;20526644;28;20418;-46
2021/08/22 16:12:13;;;;;;;3.10;1.60;;;19.80;99.90;;;;;;20508437;28;20045;-46
2021/08/22 16:22:15;;;;;;;3.22;1.27;;;19.80;99.90;;;;;;20504184;28;20051;-46
2021/08/22 16:32:16;;;;;;;5.22;2.85;;;19.70;99.90;;;;;;20516999;28;20059;-46
2021/08/22 16:42:17;;;;;;;4.97;2.30;;;19.40;99.90;;;;;;20543781;28;20043;-46
2021/08/22 16:52:18;;;;;;;5.45;3.08;;;19.20;99.90;;;;;;20543852;28;20050;-46
2021/08/22 17:02:19;;;;;;;7.05;3.35;;;19.10;99.90;;;;;;20558122;28;20487;-46
2021/08/22 17:12:21;;;;;;;5.70;2.35;;;19.10;99.90;;;;;;20565248;28;20057;-46
2021/08/22 17:22:23;;;;;;;6.32;3.28;;;18.80;99.90;;;;;;20561185;28;20369;-45
2021/08/22 17:32:25;;;;;;;6.10;2.83;;;18.80;99.90;;;;;;20547330;28;20051;-45
2021/08/22 17:42:26;;;;;;;5.78;2.10;;;18.60;99.90;;;;;;20557918;28;20039;-45
2021/08/22 17:52:27;;;;;;;5.82;2.63;;;18.40;99.90;;;;;;20560927;28;20062;-45
2021/08/22 18:02:29;;;;;;;8.02;2.60;;;18.20;99.90;;;;;;20543348;28;20043;-47
2021/08/22 18:12:32;;;;;;;5.85;2.90;;;18.00;99.90;;;;;;20554323;28;20054;-46
2021/08/22 18:22:37;;;;;;;7.43;2.47;;;17.80;99.90;;;;;;20546932;28;20395;-45
2021/08/22 18:32:39;;;;;;;5.28;2.53;;;17.70;99.90;;;;;;20559589;28;20394;-45
2021/08/22 18:42:47;;;;;;;6.93;2.97;;;17.60;99.90;;;;;;20557677;28;20047;-45
2021/08/22 18:52:48;;;;;;;5.10;2.50;;;17.60;99.90;;;;;;20539404;28;20054;-45
2021/08/22 19:02:49;;;;;;;5.38;1.83;;;17.60;99.90;;;;;;20558686;28;20046;-45
2021/08/22 19:12:50;;;;;;;4.72;1.98;;;17.50;99.90;;;;;;20527623;28;20051;-45
2021/08/22 19:22:52;;;;;;;6.70;2.80;;;17.50;99.90;;;;;;20538770;28;20031;-45
2021/08/22 19:32:53;;;;;;;6.97;3.30;;;17.60;99.90;;;;;;20533396;28;20515;-45
2021/08/22 19:42:54;;;;;;;11.20;3.72;;;17.50;99.90;;;;;;20492462;28;20051;-45
2021/08/22 19:52:55;;;;;;;5.15;2.58;;;17.50;99.90;;;;;;20468089;28;20051;-45
2021/08/22 20:02:59;;;;;;;5.35;2.78;;;17.50;99.90;;;;;;20485677;28;20040;-45
2021/08/22 20:13:02;;;;;;;4.82;2.28;;;17.60;99.90;;;;;;20483843;28;20052;-45
2021/08/22 20:23:04;;;;;;;4.68;2.10;;;17.70;99.90;;;;;;20504991;28;20046;-45
2021/08/22 20:33:07;;;;;;;8.90;2.33;;;17.50;99.90;;;;;;20511343;28;20043;-45
2021/08/22 20:43:08;;;;;;;5.18;2.15;;;17.50;99.90;;;;;;20454715;28;20048;-45
2021/08/22 20:53:10;;;;;;;3.30;1.83;;;17.60;99.90;;;;;;20445664;28;20050;-45
2021/08/22 21:03:15;;;;;;;5.15;1.58;;;17.60;99.90;;;;;;20446668;28;20044;-45
2021/08/22 21:13:16;;;;;;;4.32;2.15;;;17.50;99.90;;;;;;20450273;28;20513;-46
2021/08/22 21:23:17;;;;;;;4.00;1.77;;;17.50;99.90;;;;;;20465106;28;20039;-45
2021/08/22 21:33:18;;;;;;;4.85;2.30;;;17.50;99.90;;;;;;20430258;28;20051;-45
2021/08/22 21:43:19;;;;;;;6.78;3.25;;;17.50;99.90;;;;;;20515792;28;20062;-46
2021/08/22 21:53:20;;;;;;;7.95;3.20;;;17.40;99.90;;;;;;20482482;28;20067;-45
2021/08/22 22:03:22;;;;;;;6.70;3.00;;;17.40;99.90;;;;;;20480508;28;20047;-45
2021/08/22 22:13:23;;;;;;;7.78;3.83;;;17.30;99.90;;;;;;20474501;28;20043;-46
2021/08/22 22:23:24;;;;;;;10.70;4.20;;;17.40;99.90;;;;;;20495459;28;20062;-46
2021/08/22 22:33:25;;;;;;;9.48;4.28;;;17.40;99.90;;;;;;20487776;28;20063;-45
2021/08/22 22:43:27;;;;;;;9.32;4.95;;;17.40;99.90;;;;;;20492889;28;20042;-45
2021/08/22 22:53:28;;;;;;;8.32;3.65;;;17.50;99.90;;;;;;20477005;28;20398;-45
2021/08/22 23:03:29;;;;;;;10.40;4.90;;;17.50;99.90;;;;;;20478885;28;20054;-45
2021/08/22 23:13:31;;;;;;;8.35;4.43;;;17.50;99.90;;;;;;20492406;28;20050;-45
2021/08/22 23:23:32;;;;;;;7.28;2.75;;;17.60;99.90;;;;;;20485476;28;20509;-46
2021/08/22 23:33:33;;;;;;;4.97;2.65;;;17.60;99.90;;;;;;20484570;28;20067;-45
2021/08/22 23:43:34;;;;;;;4.32;2.13;;;17.80;99.90;;;;;;20533861;28;20046;-45
2021/08/22 23:53:38;;;;;;;5.45;2.70;;;17.70;99.90;;;;;;20506358;28;20047;-46
